This is the latest recevied weather packets stored in our database for station/object KB3VSP. If no packets are shown the sender has not sent any weather packets the latest 1 day(s).
| Time | Temp. | Humidity | Pressure | Rain* | Wind** | Luminosity | Snow |
|---|---|---|---|---|---|---|---|
| 1777992210 | 20.56° C | 62% | 1008.2 hPa | 0 mm | 0.89 m/s, 303° | 160 W/m² | - |
| 1777991906 | 20° C | 62% | 1008.1 hPa | 0 mm | 0.89 m/s, 214° | 113 W/m² | - |
| 1777991603 | 20° C | 63% | 1008.3 hPa | 0 mm | 2.24 m/s, 159° | 117 W/m² | - |
| 1777991300 | 20° C | 63% | 1008.6 hPa | 0 mm | 1.34 m/s, 297° | 95 W/m² | - |
| 1777990998 | 20° C | 63% | 1008.4 hPa | 0 mm | 0.45 m/s, 88° | 99 W/m² | - |
| 1777990695 | 20° C | 62% | 1008.6 hPa | 0 mm | 1.34 m/s, 170° | 127 W/m² | - |
| 1777990392 | 20° C | 63% | 1008.5 hPa | 0 mm | 1.34 m/s, 178° | 122 W/m² | - |
| 1777990089 | 20° C | 62% | 1008.7 hPa | 0 mm | 0.89 m/s, 311° | 126 W/m² | - |
| 1777989785 | 20° C | 62% | 1008.7 hPa | 0 mm | 1.79 m/s, 291° | 124 W/m² | - |
| 1777989482 | 20° C | 63% | 1008.9 hPa | 0 mm | 1.34 m/s, 303° | 135 W/m² | - |
| 1777989178 | 20° C | 62% | 1008.7 hPa | 0 mm | 1.34 m/s, 53° | 103 W/m² | - |
| 1777988874 | 20° C | 63% | 1008.7 hPa | 0 mm | 0.89 m/s, 346° | 118 W/m² | - |
| 1777988572 | 19.44° C | 64% | 1008.7 hPa | 0 mm | 1.34 m/s, 261° | 127 W/m² | - |
| 1777988268 | 19.44° C | 64% | 1008.6 hPa | 0 mm | 2.24 m/s, 117° | 108 W/m² | - |
| 1777987964 | 19.44° C | 64% | 1008.7 hPa | 0 mm | 0.89 m/s, 20° | 114 W/m² | - |
| 1777987660 | 19.44° C | 64% | 1008.7 hPa | 0 mm | 1.34 m/s, 91° | 118 W/m² | - |
| 1777987358 | 19.44° C | 65% | 1008.9 hPa | 0 mm | 1.34 m/s, 216° | 104 W/m² | - |
| 1777987056 | 18.89° C | 65% | 1008.6 hPa | 0 mm | 0.89 m/s, 20° | 103 W/m² | - |
| 1777986753 | 18.89° C | 65% | 1008.8 hPa | 0 mm | 0.89 m/s, 86° | 100 W/m² | - |
| 1777986450 | 18.89° C | 66% | 1008.8 hPa | 0 mm | 0 m/s | 98 W/m² | - |
| 1777986149 | 18.89° C | 66% | 1008.8 hPa | 0 mm | 0.89 m/s, 61° | 104 W/m² | - |
| 1777985845 | 18.89° C | 65% | 1008.9 hPa | 0 mm | 3.13 m/s, 198° | 97 W/m² | - |
| 1777985543 | 18.89° C | 66% | 1008.9 hPa | 0 mm | 0.89 m/s, 351° | 106 W/m² | - |
| 1777985239 | 18.89° C | 66% | 1008.9 hPa | 0 mm | 0.89 m/s, 229° | 98 W/m² | - |
| 1777984936 | 18.33° C | 67% | 1008.8 hPa | 0 mm | 0.89 m/s, 96° | 98 W/m² | - |
* Rain latest hour (hover to see other rain measurements)
** Current wind speed in m/s (hover to see current wind gust speed)